createdAt,value
2018-07-14T00:07:43.999Z,16.3
2018-07-14T00:17:59.288Z,16
2018-07-14T00:28:14.195Z,15.7
2018-07-14T00:38:28.897Z,15.4
2018-07-14T00:48:44.283Z,15.4
2018-07-14T00:58:59.020Z,15.7
2018-07-14T01:09:13.231Z,15.7
2018-07-14T01:19:28.681Z,15.5
2018-07-14T01:29:43.464Z,15.5
2018-07-14T01:39:57.444Z,15.3
2018-07-14T01:50:12.186Z,15.2
2018-07-14T02:00:25.961Z,15
2018-07-14T02:10:40.999Z,14.9
2018-07-14T02:20:54.832Z,14.8
2018-07-14T02:31:10.246Z,14.5
2018-07-14T02:41:24.894Z,14.5
2018-07-14T02:51:39.690Z,14.2
2018-07-14T03:01:54.457Z,13.7
2018-07-14T03:12:08.637Z,13.8
2018-07-14T03:22:23.004Z,14
2018-07-14T03:32:36.863Z,14.3
2018-07-14T03:42:52.221Z,14.5
2018-07-14T03:53:06.080Z,14.7
2018-07-14T04:03:20.029Z,14.8
2018-07-14T04:13:33.993Z,14.8
2018-07-14T04:23:49.211Z,14.9
2018-07-14T04:34:04.587Z,14.7
2018-07-14T04:44:19.743Z,15
2018-07-14T04:54:35.194Z,14.9
2018-07-14T05:04:49.001Z,15
2018-07-14T05:15:03.814Z,15.3
2018-07-14T05:25:18.664Z,15.7
2018-07-14T05:35:33.092Z,15.9
2018-07-14T05:45:47.114Z,16.3
2018-07-14T05:56:01.927Z,16.4
2018-07-14T06:06:16.478Z,16.6
2018-07-14T06:16:32.066Z,17.1
2018-07-14T06:26:45.948Z,18.4
2018-07-14T06:37:00.085Z,19.7
2018-07-14T06:47:15.548Z,20.5
2018-07-14T06:57:31.263Z,20.8
2018-07-14T07:07:45.570Z,20.3
2018-07-14T07:18:01.336Z,21
2018-07-14T07:28:16.580Z,21.3
2018-07-14T07:38:31.827Z,21.3
2018-07-14T07:48:45.882Z,21.2
2018-07-14T07:59:00.109Z,21.8
2018-07-14T08:09:14.944Z,22.1
2018-07-14T08:19:30.559Z,22.6
2018-07-14T08:29:45.312Z,23.1
2018-07-14T08:40:00.743Z,23.1
2018-07-14T08:50:15.837Z,23.4
2018-07-14T09:00:30.750Z,23.7
2018-07-14T09:10:45.116Z,23.8
2018-07-14T09:20:59.708Z,23.7
2018-07-14T09:31:13.717Z,24.8
2018-07-14T09:41:28.910Z,24.8
2018-07-14T09:51:44.322Z,24.4
2018-07-14T10:02:00.340Z,24.4
2018-07-14T10:12:15.310Z,26.2
2018-07-14T10:22:29.547Z,26.1
2018-07-14T10:32:44.646Z,24.6
2018-07-14T10:42:59.527Z,26.3
2018-07-14T10:53:14.331Z,26.7
2018-07-14T11:03:29.520Z,25
2018-07-14T11:13:45.041Z,26
2018-07-14T11:24:00.964Z,26.3
2018-07-14T11:34:15.851Z,26.3
2018-07-14T11:44:30.286Z,25.8
2018-07-14T11:54:44.639Z,26.1
2018-07-14T12:04:59.791Z,27.6
2018-07-14T12:15:15.712Z,25.9
2018-07-14T12:25:31.483Z,26.8
2018-07-14T12:35:45.715Z,27.1
2018-07-14T12:46:01.518Z,27.1
2018-07-14T12:56:14.927Z,27.8
2018-07-14T13:06:30.345Z,26.1
2018-07-14T13:16:44.830Z,27.7
2018-07-14T13:26:59.263Z,25.9
2018-07-14T13:37:14.977Z,27.6
2018-07-14T13:47:29.955Z,26.9
2018-07-14T13:57:45.686Z,27.8
2018-07-14T14:08:00.146Z,27.5
2018-07-14T14:18:15.191Z,28.3
2018-07-14T14:28:29.127Z,28.7
2018-07-14T14:38:43.982Z,28.6
2018-07-14T14:48:58.211Z,26.9
2018-07-14T14:59:13.224Z,27.8
2018-07-14T15:09:27.427Z,29
2018-07-14T15:19:43.399Z,28.3
2018-07-14T15:29:58.362Z,28.3
2018-07-14T15:40:13.440Z,28
2018-07-14T15:50:27.838Z,28.4
2018-07-14T16:00:43.420Z,28.2
2018-07-14T16:10:57.923Z,28.1
2018-07-14T16:21:13.352Z,27.8
2018-07-14T16:31:28.270Z,27.6
2018-07-14T16:41:43.896Z,27.8
2018-07-14T16:51:59.618Z,27.2
2018-07-14T17:02:13.669Z,26.6
2018-07-14T17:12:28.818Z,26.4
2018-07-14T17:22:43.557Z,26.3
2018-07-14T17:32:59.380Z,25.9
2018-07-14T17:43:15.105Z,25.6
2018-07-14T17:53:30.568Z,25
2018-07-14T18:03:45.197Z,24
2018-07-14T18:14:00.687Z,23.4
2018-07-14T18:24:15.238Z,23.2
2018-07-14T18:34:30.050Z,22.8
2018-07-14T18:44:45.085Z,22.6
2018-07-14T18:55:00.222Z,22.3
2018-07-14T19:05:14.294Z,22.1
2018-07-14T19:15:30.112Z,21.6
2018-07-14T19:25:44.819Z,21.4
2018-07-14T19:35:58.954Z,21
2018-07-14T19:46:14.209Z,20.6
2018-07-14T19:56:28.830Z,20.4
2018-07-14T20:06:43.359Z,19.7
2018-07-14T20:16:57.946Z,19
2018-07-14T20:27:13.651Z,18.4
2018-07-14T20:37:27.966Z,19.4
2018-07-14T20:47:42.945Z,19.3
2018-07-14T20:57:56.806Z,18.8
2018-07-14T21:08:11.850Z,17.8
2018-07-14T21:18:26.574Z,17.8
2018-07-14T21:28:41.130Z,18.5
2018-07-14T21:38:54.972Z,18.6
2018-07-14T21:49:09.011Z,18.2
2018-07-14T21:59:24.079Z,18.2
2018-07-14T22:09:38.565Z,17.9
2018-07-14T22:19:53.460Z,17.2
2018-07-14T22:30:09.359Z,16.6
2018-07-14T22:40:24.947Z,15.7
2018-07-14T22:50:40.055Z,15.6
2018-07-14T23:00:55.000Z,15.2
2018-07-14T23:11:08.890Z,14.9
2018-07-14T23:21:23.104Z,14.7
2018-07-14T23:31:38.641Z,14.4
2018-07-14T23:41:54.249Z,14.1
2018-07-14T23:52:09.527Z,14.7
